logo
Search for airport 
image banner adimage banner adimage banner ad
image banner ad

UAUU - Kostanay

Located in Kostanay, Kazakhstan

ICAO - UAUU, IATA - KSN

Data provided by Airmate  

General information

Coordinates: N53°12'31" E63°32'53"
Elevation is 601 feet MSL.
Magnetic variation is 13° East
View others Airports in Kostanay

Operational data

Special qualification required
Current time UTC:
Current local time:
Weather
METAR: UAUU 141644Z 03008MPS 9999 SCT045CB 21/18 Q1006 NOSIG RMK QFE739/0985
TAF: TAF UAUU 141401Z 1415/1424 04007G12MPS 9999 SCT030CB TEMPO 1415/1418 VRB20MPS 2000 TSRAGR SQ BKN011 BKN020CB BECMG 1418/1419 04005MPS TEMPO 1418/1424 VRB15MPS 3100 -TSRA SQ BKN011 BKN020CB
View NOTAMs / SUP AIP / TFR affecting this airport [VIEW]
Communications frequencies: [VIEW]

Runways:

RWY identifierQFULength (ft)Width (ft)SurfaceLDA (ft)
14157°9232148CONC+ASPH9232
32337°9232148CONC+ASPH9232

Airport contact information

Address: Kostanay Kazakhstan

Satellite view of UAUU